Wilton, Arkansas
Current Conditions -  °F | °C
As of 3:53 PM on Sunday 23 Nov 2014 (Local Time) from KTXK Reporting Station
Clear Clear  
Wind Chill: 71°   Ceiling: Unl
Heat Index: 71°   Visibility: 10mi
Dew Point: 58°   Wind: 14mph
Humidity: 63%   Direction: 190°S
Pressure: 29.36"   Gusts: 23mph
Location:  33.74°N, 94.15°W
Report Text: KTXK 232153Z 19012G20KT 10SM CLR 22/14 A2936 RMK AO2 SLP938 T02170144 $
Loading
Personal Weather Stations






























Interactive Weather Map New forecast layout! Learn more

10-Day Weather Forecast

Advertisements
Track Severe Weather on mobile